Gillette, WY

12:38 PM MDT on September 30, 2014 (GMT -0600)
RAWS ECHETA WY US | Change Station
CLOSE
Current Station
Personal Weather Station
Location: Gillette, WY
Elevation: 4396 ft
Nearby Weather Stations

Elev 4396 ft 44.47 °N, 105.84 °W | Updated 47 minutes ago

Mostly Cloudy
Mostly Cloudy
53 °F
Feels Like 53 °F
N
14
Wind Variable Wind from NW
Gusts 21.0 mph

Today
High -- | Low -- °F
--% Chance of Precip.
Yesterday
High -- | Low -- °F
Precip. -- in
6:59 AM 6:45 PM
Waxing Crescent, 39% visible
Pressure 29.60 in
Visibility 10.0 miles
Clouds Mostly Cloudy 10000 ft
Dew Point 46 °F
Humidity 77%
Rainfall 0.14 in
Snow Depth 0 in , 0 in , 2 in
UV 3 out of 12
Pollen 2.70 out of 12
Air Quality Not available.
Flu Activity Not available.
METAR KGCC 301753Z AUTO 29015KT 10SM BKN100 12/09 A2967 RMK AO2 SLP024 60032 T01170089 10117 20100 58002

More Conditions Fewer Conditions

Pressure 29.60 in
Visibility 10.0 miles
Clouds Mostly Cloudy 10000 ft
Dew Point 46 °F
Humidity 77%
Rainfall 0.14 in
Snow Depth 0 in , 0 in , 2 in
UV 3 out of 12
Pollen 2.70 out of 12
Air Quality Not available.
Flu Activity Not available.
METAR KGCC 301753Z AUTO 29015KT 10SM BKN100 12/09 A2967 RMK AO2 SLP024 60032 T01170089 10117 20100 58002

More Conditions Fewer Conditions

10-Day Weather Forecast

Almanac

Astronomy

Sep. 30, 2014 Rise Set
Actual Time 6:59 AM MDT 6:45 PM MDT
Civil Twilight 6:30 AM MDT 7:14 PM MDT
Nautical Twilight 5:56 AM MDT 7:47 PM MDT
Astronomical Twilight 5:22 AM MDT 8:22 PM MDT
Moon 1:20 PM MDT 11:07 PM MDT
Length of Visible Light 12h 43m
Length of Day
11h 45m
Tomorrow will be 3m 3s shorter.
Waxing Crescent, 39% of the Moon is Illuminated
Today
Waxing Crescent
Oct 1
First Quarter
Oct 8
Full
Oct 15
Last Quarter
Oct 23
New

Today's Extremes

State Highs State Lows

Community

WunderPhotos

Upload Photos

1,757,714 photos uploaded!

Nearby

Snow Depth

Station Depth Elevation
Bald Mountain 0 in 9380 ft
New Fork Lake 0 in 8340 ft
Cinnabar Park 2 in 9690 ft
Thumb Divide 0 in 7980 ft
Phillips Bench 0 in 8200 ft

Earthquake Activity

City Distance Mag. Time & Date
No recent earthquake activity has been reported nearby.
Minimum magnitude displayed is 2.5.

Coastal Water Temperatures

Place Temperature
No Stations Reporting

Nearby Weather Stations